createdAt,value
2023-01-30T00:03:35.704Z,3.83
2023-01-30T00:07:38.722Z,3.89
2023-01-30T00:11:42.592Z,3.90
2023-01-30T00:15:45.798Z,3.94
2023-01-30T00:19:50.143Z,3.95
2023-01-30T00:23:53.142Z,3.99
2023-01-30T00:27:56.655Z,4.01
2023-01-30T00:31:59.725Z,4.06
2023-01-30T00:36:04.355Z,4.07
2023-01-30T00:40:08.291Z,4.08
2023-01-30T00:44:28.699Z,4.12
2023-01-30T00:48:31.806Z,4.18
2023-01-30T00:52:36.190Z,4.17
2023-01-30T00:56:39.265Z,4.19
2023-01-30T01:00:42.407Z,4.21
2023-01-30T01:04:45.431Z,4.27
2023-01-30T01:08:49.935Z,4.26
2023-01-30T01:12:53.450Z,4.34
2023-01-30T01:16:56.479Z,4.36
2023-01-30T01:20:59.487Z,4.37
2023-01-30T01:25:05.795Z,4.38
2023-01-30T01:29:12.447Z,4.36
2023-01-30T01:33:15.474Z,4.43
2023-01-30T01:37:18.484Z,4.44
2023-01-30T01:41:22.847Z,4.45
2023-01-30T01:45:26.276Z,4.47
2023-01-30T01:49:32.771Z,4.49
2023-01-30T01:53:40.121Z,4.49
2023-01-30T01:57:49.507Z,4.47
2023-01-30T02:01:56.040Z,4.39
2023-01-30T02:06:03.722Z,4.33
2023-01-30T02:10:09.573Z,4.33
2023-01-30T02:14:16.051Z,4.30
2023-01-30T02:18:19.652Z,4.33
2023-01-30T02:22:57.147Z,4.34
2023-01-30T02:27:35.022Z,4.34
2023-01-30T02:31:49.379Z,4.33
2023-01-30T02:36:02.815Z,4.33
2023-01-30T02:40:24.135Z,4.32
2023-01-30T02:44:32.933Z,4.34
2023-01-30T02:48:43.728Z,4.34
2023-01-30T02:52:48.187Z,4.38
2023-01-30T02:56:53.414Z,4.43
2023-01-30T03:01:29.488Z,4.43
2023-01-30T03:05:58.352Z,4.48
2023-01-30T03:10:07.736Z,4.54
2023-01-30T03:14:23.726Z,4.57
2023-01-30T03:18:26.886Z,4.62
2023-01-30T03:22:31.779Z,4.65
2023-01-30T03:26:38.806Z,4.71
2023-01-30T03:30:41.966Z,4.74
2023-01-30T03:34:46.166Z,4.70
2023-01-30T03:38:52.816Z,4.78
2023-01-30T03:42:56.812Z,4.78
2023-01-30T03:47:00.048Z,4.85
2023-01-30T03:51:03.064Z,4.87
2023-01-30T03:55:08.681Z,4.93
2023-01-30T03:59:12.545Z,4.90
2023-01-30T04:03:21.695Z,5.00
2023-01-30T04:07:26.727Z,5.08
2023-01-30T04:11:31.403Z,5.12
2023-01-30T04:15:34.997Z,5.10
2023-01-30T04:19:54.051Z,5.15
2023-01-30T04:23:57.236Z,5.19
2023-01-30T04:28:01.629Z,5.22
2023-01-30T04:32:09.783Z,5.18
2023-01-30T04:36:14.273Z,5.18
2023-01-30T04:40:18.928Z,5.11
2023-01-30T04:44:23.429Z,5.07
2023-01-30T04:48:34.200Z,5.08
2023-01-30T04:52:39.862Z,5.15
2023-01-30T04:56:44.035Z,5.12
2023-01-30T05:00:49.386Z,5.13
2023-01-30T05:04:52.475Z,5.18
2023-01-30T05:08:57.015Z,5.21
2023-01-30T05:13:03.734Z,5.23
2023-01-30T05:17:08.362Z,5.27
2023-01-30T05:21:13.074Z,5.30
2023-01-30T05:25:16.965Z,5.33
2023-01-30T05:29:20.863Z,5.37
2023-01-30T05:33:25.912Z,5.37
2023-01-30T05:37:29.541Z,5.44
2023-01-30T05:41:33.519Z,5.50
2023-01-30T05:45:37.504Z,5.54
2023-01-30T05:49:42.843Z,5.59
2023-01-30T05:53:46.747Z,5.60
2023-01-30T05:57:49.989Z,5.61
2023-01-30T06:01:52.993Z,5.60
2023-01-30T06:05:57.375Z,5.64
2023-01-30T06:10:00.376Z,5.63
2023-01-30T06:14:03.387Z,5.66
2023-01-30T06:18:06.688Z,5.66
2023-01-30T06:22:11.038Z,5.71
2023-01-30T06:26:14.115Z,5.72
2023-01-30T06:30:17.644Z,5.75
2023-01-30T06:34:20.735Z,5.78
2023-01-30T06:38:26.159Z,5.88
2023-01-30T06:42:29.351Z,5.91
2023-01-30T06:46:32.405Z,5.95
2023-01-30T06:50:36.438Z,5.96
2023-01-30T06:54:40.818Z,6.00
2023-01-30T06:58:44.184Z,6.04
2023-01-30T07:02:47.830Z,6.07
2023-01-30T07:06:50.942Z,6.07
2023-01-30T07:10:55.339Z,6.13
2023-01-30T07:14:58.466Z,6.20
2023-01-30T07:19:01.514Z,6.23
2023-01-30T07:23:05.004Z,6.26
2023-01-30T07:27:09.903Z,6.30
2023-01-30T07:31:12.936Z,6.36
2023-01-30T07:35:16.469Z,6.36
2023-01-30T07:39:19.500Z,6.38
2023-01-30T07:43:23.914Z,6.43
2023-01-30T07:47:26.944Z,6.51
2023-01-30T07:51:30.139Z,6.44
2023-01-30T07:55:33.225Z,6.46
2023-01-30T07:59:37.585Z,6.40
2023-01-30T08:03:40.718Z,6.34
2023-01-30T08:07:43.771Z,6.40
2023-01-30T08:11:46.828Z,6.49
2023-01-30T08:15:51.348Z,6.63
2023-01-30T08:19:54.426Z,6.63
2023-01-30T08:24:00.082Z,6.88
2023-01-30T08:28:03.480Z,6.85
2023-01-30T08:32:07.907Z,6.78
2023-01-30T08:36:11.527Z,7.20
2023-01-30T08:40:16.181Z,7.46
2023-01-30T08:44:19.686Z,7.47
2023-01-30T08:48:24.533Z,7.66
2023-01-30T08:52:27.544Z,7.84
2023-01-30T08:56:30.588Z,7.76
2023-01-30T09:00:33.858Z,7.62
2023-01-30T09:04:38.379Z,8.03
2023-01-30T09:08:41.532Z,8.01
2023-01-30T09:12:44.744Z,8.12
2023-01-30T09:16:48.290Z,8.25
2023-01-30T09:20:53.896Z,8.18
2023-01-30T09:24:57.159Z,8.30
2023-01-30T09:29:00.832Z,8.46
2023-01-30T09:33:04.290Z,8.44
2023-01-30T09:37:08.714Z,8.59
2023-01-30T09:41:38.259Z,8.64
2023-01-30T09:45:47.504Z,8.47
2023-01-30T09:49:58.485Z,9.02
2023-01-30T09:54:24.383Z,8.62
2023-01-30T09:58:38.514Z,8.08
2023-01-30T10:02:48.748Z,8.63
2023-01-30T10:07:00.448Z,8.96
2023-01-30T10:11:13.379Z,8.01
2023-01-30T10:15:26.459Z,8.71
2023-01-30T10:19:51.195Z,8.47
2023-01-30T10:24:08.821Z,8.04
2023-01-30T10:28:19.119Z,7.83
2023-01-30T10:32:29.103Z,7.84
2023-01-30T10:36:42.087Z,7.92
2023-01-30T10:40:53.572Z,7.63
2023-01-30T10:45:07.771Z,7.58
2023-01-30T10:49:16.657Z,7.55
2023-01-30T10:53:26.022Z,7.59
2023-01-30T10:57:43.695Z,7.55
2023-01-30T11:01:56.307Z,7.54
2023-01-30T11:06:02.789Z,7.55
2023-01-30T11:10:17.006Z,7.42
2023-01-30T11:14:20.676Z,7.46
2023-01-30T11:19:18.322Z,7.38
2023-01-30T11:22:51.536Z,7.38
2023-01-30T11:26:55.807Z,7.41
2023-01-30T11:31:01.559Z,7.40
2023-01-30T11:35:23.810Z,7.48
2023-01-30T11:39:30.191Z,7.49
2023-01-30T11:43:34.448Z,7.47
2023-01-30T11:47:38.881Z,7.48
2023-01-30T11:51:48.833Z,7.46
2023-01-30T11:56:02.572Z,7.46
2023-01-30T12:00:16.451Z,7.43
2023-01-30T12:04:20.414Z,7.47
2023-01-30T12:08:41.029Z,7.46
2023-01-30T12:12:49.387Z,7.42
2023-01-30T12:17:03.437Z,7.45
2023-01-30T12:21:15.833Z,7.36
2023-01-30T12:25:24.370Z,7.46
2023-01-30T12:29:32.687Z,7.50
2023-01-30T12:33:36.431Z,7.56
2023-01-30T12:37:53.991Z,7.63
2023-01-30T12:42:16.486Z,7.67
2023-01-30T12:46:43.953Z,7.69
2023-01-30T12:51:04.346Z,7.73
2023-01-30T12:55:21.426Z,7.77
2023-01-30T12:59:32.001Z,7.85
2023-01-30T13:03:45.516Z,7.94
2023-01-30T13:08:01.201Z,7.86
2023-01-30T13:12:11.939Z,8.07
2023-01-30T13:16:25.401Z,8.13
2023-01-30T13:20:48.695Z,8.14
2023-01-30T13:25:04.087Z,7.92
2023-01-30T13:29:16.270Z,7.96
2023-01-30T13:33:26.560Z,8.04
2023-01-30T13:37:31.064Z,7.91
2023-01-30T13:41:39.276Z,7.92
2023-01-30T13:45:46.313Z,7.92
2023-01-30T13:50:00.422Z,7.94
2023-01-30T13:54:11.423Z,7.90
2023-01-30T13:58:33.268Z,8.17
2023-01-30T14:02:36.610Z,8.10
2023-01-30T14:06:41.289Z,8.19
2023-01-30T14:10:44.388Z,8.24
2023-01-30T14:15:01.581Z,8.64
2023-01-30T14:19:37.234Z,8.24
2023-01-30T14:23:43.811Z,8.13
2023-01-30T14:27:46.972Z,8.04
2023-01-30T14:31:51.746Z,8.17
2023-01-30T14:36:39.811Z,7.95
2023-01-30T14:40:46.048Z,7.90
2023-01-30T14:45:03.754Z,7.81
2023-01-30T14:49:20.790Z,7.77
2023-01-30T14:53:25.769Z,7.75
2023-01-30T14:57:33.061Z,7.74
2023-01-30T15:02:00.048Z,7.68
2023-01-30T15:06:03.474Z,7.66
2023-01-30T15:10:13.166Z,7.70
2023-01-30T15:14:24.076Z,7.68
2023-01-30T15:18:43.538Z,7.64
2023-01-30T15:23:04.130Z,7.64
2023-01-30T15:27:19.073Z,7.60
2023-01-30T15:31:25.061Z,7.59
2023-01-30T15:35:29.643Z,7.53
2023-01-30T15:39:32.722Z,7.44
2023-01-30T15:44:00.758Z,7.39
2023-01-30T15:48:24.710Z,7.37
2023-01-30T15:52:38.217Z,7.25
2023-01-30T15:56:41.820Z,7.21
2023-01-30T16:00:47.681Z,7.21
2023-01-30T16:05:14.604Z,7.14
2023-01-30T16:09:21.553Z,7.12
2023-01-30T16:13:26.195Z,7.11
2023-01-30T16:17:31.848Z,6.98
2023-01-30T16:21:40.350Z,7.01
2023-01-30T16:25:49.406Z,7.03
2023-01-30T16:29:58.896Z,7.02
2023-01-30T16:34:04.357Z,7.01
2023-01-30T16:38:42.310Z,6.83
2023-01-30T16:43:00.249Z,6.76
2023-01-30T16:47:07.404Z,6.66
2023-01-30T16:51:28.172Z,6.81
2023-01-30T16:55:33.217Z,6.63
2023-01-30T16:59:39.874Z,6.64
2023-01-30T17:03:45.009Z,6.57
2023-01-30T17:07:50.057Z,6.56
2023-01-30T17:11:54.387Z,6.56
2023-01-30T17:16:19.664Z,6.35
2023-01-30T17:20:26.398Z,6.33
2023-01-30T17:24:32.466Z,6.43
2023-01-30T17:28:42.161Z,6.35
2023-01-30T17:32:51.400Z,6.29
2023-01-30T17:36:56.098Z,6.24
2023-01-30T17:41:02.869Z,6.37
2023-01-30T17:45:11.232Z,6.21
2023-01-30T17:49:20.545Z,6.29
2023-01-30T17:53:25.605Z,6.23
2023-01-30T17:57:31.107Z,6.27
2023-01-30T18:01:35.370Z,6.33
2023-01-30T18:05:42.393Z,6.22
2023-01-30T18:09:47.665Z,6.17
2023-01-30T18:13:51.334Z,6.24
2023-01-30T18:17:56.495Z,6.35
2023-01-30T18:22:00.870Z,6.50
2023-01-30T18:26:03.956Z,6.48
2023-01-30T18:30:08.355Z,6.47
2023-01-30T18:34:12.058Z,6.45
2023-01-30T18:38:16.481Z,6.37
2023-01-30T18:42:19.609Z,6.44
2023-01-30T18:46:23.216Z,6.53
2023-01-30T18:50:26.296Z,6.46
2023-01-30T18:54:30.800Z,6.34
2023-01-30T18:58:33.980Z,6.18
2023-01-30T19:02:37.129Z,6.08
2023-01-30T19:06:41.875Z,6.11
2023-01-30T19:10:46.427Z,6.09
2023-01-30T19:14:49.461Z,6.04
2023-01-30T19:18:53.800Z,5.90
2023-01-30T19:22:56.830Z,5.93
2023-01-30T19:27:01.175Z,5.84
2023-01-30T19:31:07.186Z,5.85
2023-01-30T19:35:10.876Z,5.87
2023-01-30T19:39:13.939Z,5.85
2023-01-30T19:43:18.318Z,5.75
2023-01-30T19:47:22.082Z,5.63
2023-01-30T19:51:27.201Z,5.41
2023-01-30T19:55:33.481Z,5.31
2023-01-30T19:59:38.790Z,5.30
2023-01-30T20:03:43.096Z,5.15
2023-01-30T20:07:51.932Z,5.07
2023-01-30T20:11:55.508Z,4.98
2023-01-30T20:16:06.179Z,5.03
2023-01-30T20:20:10.984Z,5.04
2023-01-30T20:24:15.035Z,5.02
2023-01-30T20:28:18.608Z,5.10
2023-01-30T20:32:25.400Z,5.03
2023-01-30T20:36:28.638Z,5.04
2023-01-30T20:40:31.674Z,5.07
2023-01-30T20:44:35.698Z,5.11
2023-01-30T20:48:40.627Z,5.00
2023-01-30T20:52:44.035Z,4.97
2023-01-30T20:56:49.118Z,4.87
2023-01-30T21:00:52.187Z,4.73
2023-01-30T21:04:56.663Z,4.62
2023-01-30T21:08:59.791Z,4.62
2023-01-30T21:13:02.824Z,4.54
2023-01-30T21:17:05.841Z,4.52
2023-01-30T21:21:15.816Z,4.49
2023-01-30T21:25:20.088Z,4.43
2023-01-30T21:29:25.362Z,4.50
2023-01-30T21:33:28.407Z,4.62
2023-01-30T21:37:50.326Z,4.74
2023-01-30T21:42:10.995Z,4.76
2023-01-30T21:46:16.608Z,4.79
2023-01-30T21:50:19.954Z,4.84
2023-01-30T21:54:25.583Z,4.86
2023-01-30T21:58:31.426Z,4.86
2023-01-30T22:02:35.308Z,4.85
2023-01-30T22:06:39.898Z,4.88
2023-01-30T22:10:44.266Z,4.88
2023-01-30T22:14:47.328Z,4.82
2023-01-30T22:18:53.360Z,4.74
2023-01-30T22:22:56.402Z,4.73
2023-01-30T22:27:00.774Z,4.75
2023-01-30T22:31:05.235Z,4.70
2023-01-30T22:35:09.248Z,4.63
2023-01-30T22:39:12.307Z,4.53
2023-01-30T22:43:16.941Z,4.42
2023-01-30T22:47:20.076Z,4.30
2023-01-30T22:51:24.462Z,4.21
2023-01-30T22:55:27.472Z,4.13
2023-01-30T22:59:31.963Z,4.14
2023-01-30T23:03:36.031Z,4.01
2023-01-30T23:07:39.255Z,3.87
2023-01-30T23:11:44.357Z,3.80
2023-01-30T23:15:48.787Z,3.83
2023-01-30T23:19:51.972Z,3.89
2023-01-30T23:23:56.718Z,3.75
2023-01-30T23:28:00.039Z,3.72
2023-01-30T23:32:04.467Z,3.80
2023-01-30T23:36:09.637Z,3.79
2023-01-30T23:40:13.388Z,3.87
2023-01-30T23:44:16.403Z,3.81
2023-01-30T23:48:20.752Z,3.75
2023-01-30T23:52:23.794Z,3.67
2023-01-30T23:56:28.621Z,3.58
